This is the latest recevied weather packets stored in our database for station/object DB0OHL. If no packets are shown the sender has not sent any weather packets the latest 10 day(s).
| Time | Temp. | Humidity | Pressure | Rain* | Wind** | Luminosity | Snow |
|---|---|---|---|---|---|---|---|
| 1777733736 | 20° C | 75% | 1015.6 hPa | 0 mm | - | - | - |
| 1777733134 | 20.56° C | 71% | 1015.7 hPa | 0 mm | - | - | - |
| 1777732531 | 21.67° C | 67% | 1015.7 hPa | 0 mm | - | - | - |
| 1777731929 | 22.22° C | 63% | 1015.9 hPa | 0 mm | - | - | - |
| 1777731326 | 22.78° C | 61% | 1015.9 hPa | 0 mm | - | - | - |
| 1777730724 | 22.78° C | 61% | 1016.1 hPa | 0 mm | - | - | - |
| 1777730121 | 22.22° C | 61% | 1016 hPa | 0 mm | - | - | - |
| 1777729519 | 23.33° C | 61% | 1015.9 hPa | 0 mm | - | - | - |
| 1777728916 | 23.89° C | 59% | 1016.1 hPa | 0 mm | - | - | - |
| 1777728374 | 23.89° C | 59% | 1016.2 hPa | 0 mm | - | - | - |
| 1777727771 | 24.44° C | 57% | 1016.2 hPa | 0 mm | - | - | - |
| 1777727169 | 24.44° C | 57% | 1016.2 hPa | 0 mm | - | - | - |
| 1777726566 | 23.89° C | 59% | 1016.4 hPa | 0 mm | - | - | - |
| 1777725964 | 23.89° C | 59% | 1016.5 hPa | 0 mm | - | - | - |
| 1777725361 | 23.89° C | 59% | 1016.6 hPa | 0 mm | - | - | - |
| 1777724759 | 23.89° C | 58% | 1016.7 hPa | 0 mm | - | - | - |
| 1777724156 | 23.89° C | 58% | 1016.7 hPa | 0 mm | - | - | - |
| 1777723553 | 23.33° C | 59% | 1016.9 hPa | 0 mm | - | - | - |
| 1777722951 | 23.33° C | 58% | 1017.1 hPa | 0 mm | - | - | - |
| 1777722348 | 23.89° C | 57% | 1017 hPa | 0 mm | - | - | - |
| 1777721746 | 23.89° C | 57% | 1017.3 hPa | 0 mm | - | - | - |
| 1777721143 | 23.33° C | 58% | 1017.3 hPa | 0 mm | - | - | - |
| 1777720541 | 22.78° C | 58% | 1017.5 hPa | 0 mm | - | - | - |
| 1777719938 | 22.78° C | 58% | 1017.5 hPa | 0 mm | - | - | - |
| 1777719336 | 22.78° C | 59% | 1017.6 hPa | 0 mm | - | - | - |
* Rain latest hour (hover to see other rain measurements)
** Current wind speed in m/s (hover to see current wind gust speed)